Nearby METAR Reports

Here are local weather reports from nearby weather stations and airports.

KHFD - Hartford/Brainar, Connecticut, USA
Distance from station: NE 5mi, 8km
Updated: Tue, 01/31/23 5:53am EST
Light snow, Overcast
Light snow, Overcast
 Wind from NNW
Wind: NNW 6 mph , 9 km/h
Temperature: 34°F , 1°C
Wind Chill: 29°F , -2°C
Dew Point: 27°F , -3°C
Humidity: 75%
Barometer: 30.14 inHg , 1020.7 hPa
Summary: Light Snow
Clouds: Overcast
Visibility: 9 miles , 14 km
Cloud details: Partly cloudy 4200 ft
Overcast 5500 ft
2023/01/31 10:53 KHFD 311053Z 34005KT 9SM -SN SCT042 OVC055 01/M03 A3014 RMK AO2 SNB0957 SLP207 P0000 T00111028
KMMK - Meriden, Connecticut, USA
Distance from station: SSW 13mi, 21km
Updated: Tue, 01/31/23 5:53am EST
Light snow, Overcast
Light snow, Overcast
 Wind from N
Wind: N 8 mph , 13 km/h
Temperature: 34°F , 1°C
Wind Chill: 27°F , -3°C
Dew Point: 27°F , -3°C
Humidity: 75%
Barometer: 30.14 inHg , 1020.7 hPa
Summary: Light Snow
Clouds: Overcast
Visibility: 6 miles , 10 km
Cloud details: Few Clouds 2000 ft
Overcast 4300 ft
2023/01/31 10:53 KMMK 311053Z AUTO 35007KT 6SM -SN FEW020 OVC043 01/M03 A3014 RMK AO2 UPB02E07SNE02B24 SLP206 P0000 T00061033
 
KBDL - Windsor Locks, Connecticut, USA
Distance from station: N 17mi, 28km
Updated: Tue, 01/31/23 5:51am EST
Light snow, Overcast
Light snow, Overcast
 Wind from N
Wind: N 7 mph , 11 km/h
Temperature: 34°F , 1°C
Wind Chill: 28°F , -2°C
Dew Point: 25°F , -4°C
Humidity: 70%
Barometer: 30.13 inHg , 1020.3 hPa
Summary: Light Snow
Clouds: Overcast
Visibility: 7 miles , 11 km
Cloud details: Few Clouds 4400 ft
Overcast 5500 ft
2023/01/31 10:51 KBDL 311051Z 35006KT 7SM -SN FEW044 OVC055 01/M04 A3013 RMK AO2 SLP206 P0000 T00061044
KSNC - Chester, Connecticut, USA
Distance from station: SSE 24mi, 38km
Updated: Tue, 01/31/23 5:55am EST
Light rain, Overcast
Light rain, Overcast
 Wind from NW
Wind: NW 13 mph , 20 km/h
Temperature: 34°F , 1°C
Wind Chill: 25°F , -4°C
Dew Point: 30°F , -1°C
Humidity: 87%
Barometer: 30.12 inHg , 1020 hPa
Summary: Light rain
Clouds: Overcast
Visibility: 4 miles , 6 km
Cloud details: Few Clouds 2200 ft
Overcast 3000 ft
2023/01/31 10:55 KSNC 311055Z AUTO 32011KT 300V010 4SM -RA FEW022 OVC030 01/M01 A3012 RMK AO2
 
KOXC - Oxford/Waterbury, Connecticut, USA
Distance from station: SW 26mi, 42km
Updated: Tue, 01/31/23 5:51am EST
Light snow, Mist, Overcast
Light snow, Mist, Overcast
 Wind from N
Wind: N 10 mph , 17 km/h
Temperature: 30°F , -1°C
Wind Chill: 21°F , -6°C
Dew Point: 27°F , -3°C
Humidity: 86%
Barometer: 30.11 inHg , 1019.6 hPa
Summary: Light snow, Mist
Clouds: Overcast
Visibility: 4 miles , 6 km
Cloud details: Few Clouds 2400 ft
Mostly cloudy 3000 ft
Overcast 4100 ft
2023/01/31 10:51 KOXC 311051Z AUTO 36009KT 4SM -SN BR FEW024 BKN030 OVC041 M01/M03 A3011 RMK AO2 SLP214 P0000 T10111028 FZRANO
KIJD - Willimantic, Connecticut, USA
Distance from station: E 28mi, 45km
Updated: Tue, 01/31/23 5:52am EST
Light snow, Overcast
Light snow, Overcast
 Wind from NNW
Wind: NNW 6 mph , 9 km/h
Temperature: 36°F , 2°C
Wind Chill: 31°F , -1°C
Dew Point: 30°F , -1°C
Humidity: 81%
Barometer: 30.12 inHg , 1020 hPa
Summary: Light Snow
Clouds: Overcast
Visibility: 7 miles , 11 km
Cloud details: Few Clouds 1700 ft
Mostly cloudy 3200 ft
Overcast 4300 ft
2023/01/31 10:52 KIJD 311052Z AUTO 33005KT 7SM -SN FEW017 BKN032 OVC043 02/M01 A3012 RMK AO2 RAB0953E12UPB26E45SNB12E26B45 SLP200 P0000 T00171011
 
KHVN - New Haven/Tweed, Connecticut, USA
Distance from station: SSW 30mi, 48km
Updated: Tue, 01/31/23 5:53am EST
Overcast
Overcast
 Wind from N
Wind: N 15 mph , 24 km/h, Gust: 22 mph , 35 km/h
Temperature: 36°F , 2°C
Wind Chill: 27°F , -3°C
Dew Point: 28°F , -2°C
Humidity: 75%
Barometer: 30.12 inHg , 1020 hPa
Clouds: Overcast
Visibility: 4 miles , 6 km
Cloud details: Overcast 3500 ft
2023/01/31 10:53 KHVN 311053Z 01013G19KT 4SM UP OVC035 02/M02 A3012 RMK AO2 UPB35 SLP200 P0000 T00221017
KBAF - Westfield, Massachusetts, USA
Distance from station: 0 33mi, 54km
Updated: Tue, 01/31/23 5:53am EST
Overcast
Overcast
 Wind from NNW
Wind: NNW 8 mph , 13 km/h
Temperature: 32°F , 0°C
Wind Chill: 25°F , -4°C
Dew Point: 21°F , -6°C
Humidity: 64%
Barometer: 30.13 inHg , 1020.3 hPa
Clouds: Overcast
Visibility: 10 miles , 16 km
Cloud details: Mostly cloudy 5000 ft
Overcast 6500 ft
2023/01/31 10:53 KBAF 311053Z AUTO 34007KT 10SM BKN050 OVC065 00/M06 A3013 RMK AO2 SNE04 SLP207 P0000 T00001056
 
KCEF - Chicopee/Westove, Massachusetts, USA
Distance from station: NNE 37mi, 60km
Updated: Tue, 01/31/23 5:38am EST
Light snow, Overcast
Light snow, Overcast
 Wind from calm
Wind: Calm
Temperature: 32°F , 0°C
Dew Point: 30°F , -1°C
Humidity: 93%
Barometer: 30.11 inHg , 1019.6 hPa
Summary: Light Snow
Clouds: Overcast
Visibility: 7 miles , 11 km
Cloud details: Partly cloudy 2800 ft
Overcast 3500 ft
2023/01/31 10:38 KCEF 311038Z COR 00000KT 7SM -SN SCT028 OVC035 M00/M01 A3011 RMK AO2A SLP204 COR 1044
KBDR - Bridgeport, Connecticut, USA
Distance from station: SSW 42mi, 67km
Updated: Tue, 01/31/23 5:52am EST
Light snow, Overcast
Light snow, Overcast
 Wind from N
Wind: N 12 mph , 19 km/h
Temperature: 36°F , 2°C
Wind Chill: 28°F , -2°C
Dew Point: 28°F , -2°C
Humidity: 75%
Barometer: 30.13 inHg , 1020.3 hPa
Summary: Light Snow
Clouds: Overcast
Visibility: 9 miles , 14 km
Cloud details: Overcast 3400 ft
2023/01/31 10:52 KBDR 311052Z AUTO 36010KT 9SM -SN OVC034 02/M02 A3013 RMK AO2 RAB04E48UPB15E23SNB48 SLP204 P0000 T00171017
 
KGON - Groton/New Londo, Connecticut, USA
Distance from station: SE 42mi, 68km
Updated: Tue, 01/31/23 5:56am EST
Light rain, Overcast
Light rain, Overcast
 Wind from NNW
Wind: NNW 16 mph , 26 km/h
Temperature: 39°F , 4°C
Wind Chill: 30°F , -1°C
Dew Point: 28°F , -2°C
Humidity: 65%
Barometer: 30.11 inHg , 1019.6 hPa
Summary: Light rain
Clouds: Overcast
Visibility: 10 miles , 16 km
Cloud details: Overcast 2500 ft
2023/01/31 10:56 KGON 311056Z AUTO 34014KT 10SM -RA OVC025 04/M02 A3011 RMK AO2 RAB17 SLP195 P0000 T00391017 $
KDXR - Danbury, Connecticut, USA
Distance from station: WSW 45mi, 73km
Updated: Tue, 01/31/23 5:53am EST
Light snow, Overcast
Light snow, Overcast
 Wind from N
Wind: N 6 mph , 9 km/h
Temperature: 34°F , 1°C
Wind Chill: 29°F , -2°C
Dew Point: 27°F , -3°C
Humidity: 75%
Barometer: 30.14 inHg , 1020.7 hPa
Summary: Light Snow
Clouds: Overcast
Visibility: 2 1/2 miles , 4 km
Cloud details: Mostly cloudy 3700 ft
Overcast 4400 ft
2023/01/31 10:53 KDXR 311053Z AUTO 36005KT 2 1/2SM -SN BKN037 OVC044 01/M03 A3014 RMK AO2 SLP207 P0000 T00061033